KBWG/BWG METAR and TAF weather

Enter ICAO airport designator
Station Type Date Time Source
KBWG METAR 2022/11/30 10:41 UTC NOAA

KBWG 301041Z AUTO 31015G28KT OVC015 07/03 A2994 RMK AO2 PK WND 30032/1003 T00670028 $


Station Type Date Time Source
KBWG Decoded METAR 2022/11/30 10:41 UTC NOAA

BOWLING GREEN-WARREN CO RGNL, KY, United States (KBWG) 36-58N 086-25W 161M
Nov 30, 2022 - 05:41 AM EST / 2022.11.30 1041 UTC
Wind: from the NW (310 degrees) at 17 MPH (15 KT) gusting to 32 MPH (28 KT):0
Sky conditions: overcast
Temperature: 44.1 F (6.7 C)
Dew Point: 37.0 F (2.8 C)
Relative Humidity: 76%
Pressure (altimeter): 29.94 in. Hg (1013 hPa)
ob: KBWG 301041Z AUTO 31015G28KT OVC015 07/03 A2994 RMK AO2 PK WND 30032/1003 T00670028
cycle: 10

Station Type Date Time Source
KBWG TAF 2022/11/30 06:36 UTC NOAA

TAF KBWG 300532Z 3006/0106 20015G23KT 6SM BR VCTS OVC015CB
TEMPO 3007/3009 2SM TSRA BR OVC015CB
FM300900 29015G25KT P6SM VCSH OVC015
FM301300 30011G19KT P6SM SCT025
FM302300 30005KT P6SM SKC

Example: see airport list